createdAt,value
2019-06-07T00:00:51.024Z,87.54
2019-06-07T00:01:50.948Z,87.44
2019-06-07T00:02:50.873Z,87.82
2019-06-07T00:03:50.796Z,87.92
2019-06-07T00:04:50.716Z,87.82
2019-06-07T00:05:50.642Z,87.63
2019-06-07T00:06:50.558Z,87.82
2019-06-07T00:07:50.489Z,88.21
2019-06-07T00:08:50.413Z,89.03
2019-06-07T00:09:50.332Z,89.46
2019-06-07T00:10:50.261Z,90.08
2019-06-07T00:11:50.184Z,90.42
2019-06-07T00:12:50.103Z,90.28
2019-06-07T00:13:50.020Z,90.61
2019-06-07T00:14:49.957Z,90.47
2019-06-07T00:15:49.873Z,90.37
2019-06-07T00:16:49.795Z,90.28
2019-06-07T00:17:49.994Z,90.03
2019-06-07T00:18:49.644Z,90.08
2019-06-07T00:19:49.575Z,90.37
2019-06-07T00:20:49.479Z,90.37
2019-06-07T00:22:49.330Z,90.47
2019-06-07T00:23:49.256Z,90.66
2019-06-07T00:24:49.215Z,90.75
2019-06-07T00:25:49.095Z,91.72
2019-06-07T00:26:58.329Z,92.19
2019-06-07T00:27:48.949Z,91.91
2019-06-07T00:28:48.872Z,92.19
2019-06-07T00:29:48.852Z,92.77
2019-06-07T00:30:52.219Z,93.15
2019-06-07T00:31:48.635Z,93.06
2019-06-07T00:32:48.555Z,93.88
2019-06-07T00:33:48.480Z,93.82
2019-06-07T00:34:48.401Z,94.12
2019-06-07T00:35:48.324Z,94.59
2019-06-07T00:36:48.403Z,94.07
2019-06-07T00:37:48.170Z,94.69
2019-06-07T00:38:48.089Z,95.12
2019-06-07T00:40:12.694Z,94.84
2019-06-07T00:40:47.933Z,95.36
2019-06-07T00:41:47.865Z,95.17
2019-06-07T00:42:47.778Z,95.12
2019-06-07T00:43:47.706Z,95.36
2019-06-07T00:44:47.627Z,94.79
2019-06-07T00:45:47.549Z,94.88
2019-06-07T00:46:47.466Z,94.98
2019-06-07T00:47:47.396Z,95.89
2019-06-07T00:48:47.315Z,96.85
2019-06-07T00:49:47.237Z,96.56
2019-06-07T00:50:47.159Z,97.23
2019-06-07T00:51:50.312Z,96.85
2019-06-07T00:53:46.927Z,97.90
2019-06-07T00:54:46.865Z,98.10
2019-06-07T00:55:46.771Z,98.48
2019-06-07T00:56:46.692Z,98.38
2019-06-07T00:57:46.614Z,98.77
2019-06-07T00:58:46.538Z,98.86
2019-06-07T00:59:46.459Z,99.24
2019-06-07T01:00:46.380Z,98.86
2019-06-07T01:01:46.303Z,98.57
2019-06-07T01:02:46.228Z,98.57
2019-06-07T01:03:46.157Z,98.91
2019-06-07T01:04:46.072Z,99.10
2019-06-07T01:05:45.996Z,99.29
2019-06-07T01:06:45.912Z,99.05
2019-06-07T01:07:45.839Z,99.82
2019-06-07T01:08:45.762Z,99.15
2019-06-07T01:09:45.681Z,99.01
2019-06-07T01:10:53.482Z,99.99
2019-06-07T01:11:45.525Z,99.34
2019-06-07T01:12:45.445Z,99.96
2019-06-07T01:13:45.373Z,99.87
2019-06-07T01:14:45.289Z,99.99
2019-06-07T01:15:45.222Z,99.91
2019-06-07T01:16:57.597Z,99.91
2019-06-07T01:18:32.534Z,99.91
2019-06-07T01:18:46.874Z,99.87
2019-06-07T01:19:44.901Z,99.99
2019-06-07T01:20:44.825Z,99.99
2019-06-07T01:21:44.748Z,99.99
2019-06-07T01:22:44.675Z,99.99
2019-06-07T01:24:08.774Z,99.99
2019-06-07T01:24:44.513Z,99.99
2019-06-07T01:25:44.435Z,99.99
2019-06-07T01:26:45.583Z,99.99
2019-06-07T01:27:44.278Z,99.99
2019-06-07T01:28:44.204Z,99.99
2019-06-07T01:29:44.124Z,99.99
2019-06-07T01:30:44.043Z,99.99
2019-06-07T01:31:44.256Z,99.99
2019-06-07T01:32:43.894Z,99.99
2019-06-07T01:33:51.011Z,99.99
2019-06-07T01:34:43.735Z,99.99
2019-06-07T01:35:43.653Z,99.99
2019-06-07T01:36:43.603Z,99.99
2019-06-07T01:37:43.500Z,99.99
2019-06-07T01:38:43.425Z,99.99
2019-06-07T01:39:43.339Z,99.99
2019-06-07T01:40:43.266Z,99.99
2019-06-07T01:41:43.190Z,99.82
2019-06-07T01:42:43.104Z,99.99
2019-06-07T01:43:43.029Z,99.99
2019-06-07T01:44:42.953Z,99.99
2019-06-07T01:45:42.877Z,99.99
2019-06-07T01:46:42.797Z,99.99
2019-06-07T01:47:42.755Z,99.99
2019-06-07T01:48:49.579Z,99.99
2019-06-07T01:49:42.563Z,99.91
2019-06-07T01:50:42.479Z,99.99
2019-06-07T01:51:42.407Z,99.73
2019-06-07T01:54:49.644Z,99.82
2019-06-07T01:55:13.772Z,99.63
2019-06-07T01:56:13.702Z,99.15
2019-06-07T01:57:30.950Z,99.15
2019-06-07T01:58:13.537Z,99.15
2019-06-07T01:59:13.462Z,98.77
2019-06-07T02:00:14.463Z,99.34
2019-06-07T02:01:13.308Z,99.24
2019-06-07T02:02:13.228Z,99.15
2019-06-07T02:03:13.149Z,99.91
2019-06-07T02:04:13.070Z,99.99
2019-06-07T02:05:12.987Z,99.91
2019-06-07T02:06:12.926Z,99.82
2019-06-07T02:07:12.835Z,99.73
2019-06-07T02:08:12.760Z,99.15
2019-06-07T02:09:12.707Z,99.05
2019-06-07T02:10:12.610Z,99.24
2019-06-07T02:11:12.529Z,99.15
2019-06-07T02:12:25.548Z,99.99
2019-06-07T02:13:12.371Z,99.96
2019-06-07T02:14:12.286Z,99.87
2019-06-07T02:15:12.219Z,99.87
2019-06-07T02:16:12.139Z,99.99
2019-06-07T02:17:12.060Z,99.99
2019-06-07T02:18:11.982Z,99.99
2019-06-07T02:19:11.907Z,99.99
2019-06-07T02:20:11.828Z,99.99
2019-06-07T02:21:11.750Z,99.99
2019-06-07T02:22:11.671Z,99.99
2019-06-07T02:23:11.591Z,99.99
2019-06-07T02:24:11.516Z,99.99
2019-06-07T02:26:11.358Z,99.99
2019-06-07T02:27:11.281Z,99.99
2019-06-07T02:28:27.539Z,99.99
2019-06-07T02:29:11.126Z,99.99
2019-06-07T02:30:36.801Z,99.99
2019-06-07T02:31:10.969Z,99.99
2019-06-07T02:32:10.890Z,99.99
2019-06-07T02:33:10.818Z,99.99
2019-06-07T02:34:10.733Z,99.99
2019-06-07T02:35:10.656Z,99.99
2019-06-07T02:36:10.590Z,99.99
2019-06-07T02:37:10.498Z,99.99
2019-06-07T02:38:10.425Z,99.99
2019-06-07T02:39:10.346Z,99.99
2019-06-07T02:40:10.270Z,99.99
2019-06-07T02:41:10.191Z,99.99
2019-06-07T02:42:10.110Z,99.99
2019-06-07T02:43:10.029Z,99.99
2019-06-07T02:44:09.960Z,99.99
2019-06-07T02:45:10.730Z,99.99
2019-06-07T02:46:25.508Z,99.99
2019-06-07T02:47:09.733Z,99.99
2019-06-07T02:48:09.643Z,99.99
2019-06-07T02:49:09.569Z,99.99
2019-06-07T02:50:09.487Z,99.99
2019-06-07T02:51:09.411Z,99.99
2019-06-07T02:52:09.384Z,99.99
2019-06-07T02:53:09.259Z,99.99
2019-06-07T02:54:09.177Z,99.99
2019-06-07T02:55:09.099Z,99.99
2019-06-07T02:56:37.717Z,99.99
2019-06-07T02:57:08.947Z,99.99
2019-06-07T02:58:08.861Z,99.99
2019-06-07T02:59:08.783Z,99.99
2019-06-07T03:00:40.413Z,99.99
2019-06-07T03:01:09.691Z,99.99
2019-06-07T03:02:08.598Z,99.99
2019-06-07T03:03:08.473Z,99.99
2019-06-07T03:04:08.396Z,99.99
2019-06-07T03:05:08.317Z,99.99
2019-06-07T03:06:08.239Z,99.99
2019-06-07T03:07:08.163Z,99.99
2019-06-07T03:08:08.085Z,99.99
2019-06-07T03:09:08.006Z,99.99
2019-06-07T03:10:07.924Z,99.99
2019-06-07T03:11:07.850Z,99.99
2019-06-07T03:12:07.774Z,99.99
2019-06-07T03:13:07.694Z,99.99
2019-06-07T03:14:07.619Z,99.99
2019-06-07T03:15:07.535Z,99.99
2019-06-07T03:16:07.459Z,99.99
2019-06-07T03:17:07.384Z,99.99
2019-06-07T03:18:07.306Z,99.99
2019-06-07T03:19:07.227Z,99.99
2019-06-07T03:20:07.149Z,99.99
2019-06-07T03:21:07.067Z,99.99
2019-06-07T03:22:06.986Z,99.99
2019-06-07T03:23:06.910Z,99.99
2019-06-07T03:24:06.836Z,99.99
2019-06-07T03:25:06.759Z,99.99
2019-06-07T03:26:06.674Z,99.99
2019-06-07T03:28:06.520Z,99.99
2019-06-07T03:29:06.440Z,99.99
2019-06-07T03:30:36.191Z,99.99
2019-06-07T03:31:06.299Z,99.99
2019-06-07T03:32:06.208Z,99.99
2019-06-07T03:33:06.149Z,99.99
2019-06-07T03:34:06.050Z,99.99
2019-06-07T03:35:05.974Z,99.99
2019-06-07T03:36:22.651Z,99.99
2019-06-07T03:37:05.819Z,99.99
2019-06-07T03:38:05.742Z,99.99
2019-06-07T03:39:05.661Z,99.99
2019-06-07T03:40:05.583Z,99.99
2019-06-07T03:41:05.500Z,99.99
2019-06-07T03:42:08.230Z,99.99
2019-06-07T03:43:05.348Z,99.99
2019-06-07T03:44:05.299Z,99.99
2019-06-07T03:45:05.189Z,99.99
2019-06-07T03:46:05.109Z,99.99
2019-06-07T03:47:05.035Z,99.99
2019-06-07T03:48:04.957Z,99.99
2019-06-07T03:49:04.881Z,99.99
2019-06-07T03:50:04.800Z,99.99
2019-06-07T03:51:20.312Z,99.99
2019-06-07T03:52:04.643Z,99.99
2019-06-07T03:53:04.584Z,99.99
2019-06-07T03:54:04.492Z,99.99
2019-06-07T03:55:04.413Z,99.99
2019-06-07T03:56:04.351Z,99.99
2019-06-07T03:57:04.692Z,99.99
2019-06-07T03:59:04.099Z,99.99
2019-06-07T04:00:04.021Z,99.99
2019-06-07T04:01:03.946Z,99.99
2019-06-07T04:02:03.863Z,99.99
2019-06-07T04:03:03.786Z,99.99
2019-06-07T04:04:03.721Z,99.99
2019-06-07T04:05:03.630Z,99.99
2019-06-07T04:06:03.614Z,99.99
2019-06-07T04:07:03.475Z,99.99
2019-06-07T04:08:03.455Z,99.99
2019-06-07T04:09:03.324Z,99.99
2019-06-07T04:10:03.311Z,99.99
2019-06-07T04:11:03.165Z,99.99
2019-06-07T04:12:03.086Z,99.99
2019-06-07T04:13:03.010Z,99.99
2019-06-07T04:14:02.929Z,99.99
2019-06-07T04:15:02.851Z,99.99
2019-06-07T04:16:02.789Z,99.99
2019-06-07T04:17:02.710Z,99.99
2019-06-07T04:18:04.153Z,99.99
2019-06-07T04:19:02.541Z,99.99
2019-06-07T04:20:02.930Z,99.99
2019-06-07T04:21:02.389Z,99.99
2019-06-07T04:22:02.311Z,99.99
2019-06-07T04:23:02.232Z,99.99
2019-06-07T04:24:02.153Z,99.99
2019-06-07T04:25:02.088Z,99.99
2019-06-07T04:26:01.994Z,99.99
2019-06-07T04:27:01.920Z,99.99
2019-06-07T04:28:01.836Z,99.99
2019-06-07T04:29:32.481Z,99.99
2019-06-07T04:30:07.236Z,99.99
2019-06-07T04:31:01.607Z,99.99
2019-06-07T04:32:01.528Z,99.99
2019-06-07T04:33:01.460Z,99.99
2019-06-07T04:34:01.368Z,99.99
2019-06-07T04:35:01.292Z,99.99
2019-06-07T04:36:01.215Z,99.99
2019-06-07T04:37:01.145Z,99.99
2019-06-07T04:38:01.058Z,99.99
2019-06-07T04:39:00.982Z,99.99
2019-06-07T04:40:00.905Z,99.99
2019-06-07T04:41:00.847Z,99.99
2019-06-07T04:42:00.746Z,99.99
2019-06-07T04:43:00.671Z,99.99
2019-06-07T04:44:00.632Z,99.99
2019-06-07T04:45:00.677Z,99.99
2019-06-07T04:46:00.534Z,99.99
2019-06-07T04:47:00.380Z,99.99
2019-06-07T04:48:00.297Z,99.99
2019-06-07T04:49:00.242Z,99.99
2019-06-07T04:50:00.125Z,99.99
2019-06-07T04:51:00.044Z,99.99
2019-06-07T04:51:59.966Z,99.99
2019-06-07T04:52:59.898Z,99.99
2019-06-07T04:53:59.815Z,99.99
2019-06-07T04:54:59.732Z,99.99
2019-06-07T04:55:59.657Z,99.99
2019-06-07T04:56:59.576Z,99.99
2019-06-07T04:57:59.498Z,99.99
2019-06-07T04:58:59.427Z,99.99
2019-06-07T05:00:12.963Z,99.99
2019-06-07T05:01:03.494Z,99.99
2019-06-07T05:01:59.187Z,99.99
2019-06-07T05:02:59.109Z,99.99
2019-06-07T05:03:59.035Z,99.99
2019-06-07T05:04:58.956Z,99.99
2019-06-07T05:05:58.876Z,99.99
2019-06-07T05:06:58.808Z,99.99
2019-06-07T05:08:07.233Z,99.99
2019-06-07T05:08:58.684Z,99.99
2019-06-07T05:09:58.565Z,99.99
2019-06-07T05:10:58.490Z,99.99
2019-06-07T05:11:58.412Z,99.99
2019-06-07T05:12:58.415Z,99.99
2019-06-07T05:13:58.386Z,99.99
2019-06-07T05:14:58.228Z,99.99
2019-06-07T05:15:58.101Z,99.99
2019-06-07T05:16:58.056Z,99.99
2019-06-07T05:17:57.974Z,99.99
2019-06-07T05:18:57.889Z,99.99
2019-06-07T05:19:57.856Z,99.99
2019-06-07T05:20:57.715Z,99.99
2019-06-07T05:22:04.411Z,99.99
2019-06-07T05:22:57.559Z,99.99
2019-06-07T05:24:07.513Z,99.99
2019-06-07T05:24:57.412Z,99.99
2019-06-07T05:25:57.332Z,99.99
2019-06-07T05:26:57.273Z,99.99
2019-06-07T05:27:57.176Z,99.99
2019-06-07T05:28:57.091Z,99.99
2019-06-07T05:30:13.346Z,99.99
2019-06-07T05:31:04.511Z,99.99
2019-06-07T05:31:56.872Z,99.99
2019-06-07T05:32:56.783Z,99.99
2019-06-07T05:33:56.729Z,99.99
2019-06-07T05:34:56.633Z,99.99
2019-06-07T05:35:56.556Z,99.99
2019-06-07T05:37:11.077Z,99.99
2019-06-07T05:37:56.406Z,99.99
2019-06-07T05:38:56.317Z,99.99
2019-06-07T05:39:56.260Z,99.99
2019-06-07T05:40:56.165Z,99.99
2019-06-07T05:41:56.090Z,99.99
2019-06-07T05:42:56.011Z,99.99
2019-06-07T05:44:12.227Z,99.99
2019-06-07T05:44:55.862Z,99.99
2019-06-07T05:45:55.795Z,99.99
2019-06-07T05:46:55.702Z,99.99
2019-06-07T05:47:55.644Z,99.99
2019-06-07T05:48:55.550Z,99.99
2019-06-07T05:49:55.480Z,99.99
2019-06-07T05:50:57.339Z,99.99
2019-06-07T05:51:55.316Z,99.99
2019-06-07T05:52:55.266Z,99.99
2019-06-07T05:53:55.159Z,99.99
2019-06-07T05:54:55.082Z,99.99
2019-06-07T05:55:55.009Z,99.99
2019-06-07T05:56:54.927Z,99.99
2019-06-07T05:57:54.860Z,99.99
2019-06-07T05:58:54.777Z,99.99
2019-06-07T05:59:54.699Z,99.99
2019-06-07T06:00:54.619Z,99.99
2019-06-07T06:02:02.648Z,99.99
2019-06-07T06:03:04.962Z,99.99
2019-06-07T06:03:54.389Z,99.99
2019-06-07T06:04:54.306Z,99.99
2019-06-07T06:05:55.530Z,99.99
2019-06-07T06:06:54.154Z,99.99
2019-06-07T06:07:54.079Z,99.99
2019-06-07T06:09:11.518Z,99.99
2019-06-07T06:09:53.926Z,99.99
2019-06-07T06:10:53.857Z,99.99
2019-06-07T06:12:01.772Z,99.99
2019-06-07T06:12:53.688Z,99.99
2019-06-07T06:14:06.447Z,99.99
2019-06-07T06:14:53.538Z,99.99
2019-06-07T06:16:01.079Z,99.99
2019-06-07T06:16:53.386Z,99.99
2019-06-07T06:17:54.126Z,99.99
2019-06-07T06:18:53.225Z,99.99
2019-06-07T06:19:53.649Z,99.99
2019-06-07T06:21:15.662Z,99.99
2019-06-07T06:21:53.000Z,99.99
2019-06-07T06:22:52.924Z,99.99
2019-06-07T06:23:54.041Z,99.99
2019-06-07T06:25:30.077Z,99.99
2019-06-07T06:25:56.627Z,99.99
2019-06-07T06:27:00.272Z,99.99
2019-06-07T06:28:12.434Z,99.99
2019-06-07T06:28:52.456Z,99.99
2019-06-07T06:29:52.560Z,99.99
2019-06-07T06:30:52.319Z,99.99
2019-06-07T06:32:39.791Z,99.99
2019-06-07T06:32:57.798Z,99.99
2019-06-07T06:33:52.077Z,99.99
2019-06-07T06:34:54.027Z,99.99
2019-06-07T06:35:51.923Z,99.99
2019-06-07T06:36:51.853Z,99.99
2019-06-07T06:37:53.181Z,99.99
2019-06-07T06:38:51.739Z,99.99
2019-06-07T06:39:51.617Z,99.99
2019-06-07T06:41:11.752Z,99.99
2019-06-07T06:42:01.664Z,99.99
2019-06-07T06:42:51.385Z,99.99
2019-06-07T06:43:52.654Z,99.99
2019-06-07T06:44:53.966Z,99.99
2019-06-07T06:45:51.162Z,99.99
2019-06-07T06:46:57.456Z,99.99
2019-06-07T06:47:51.042Z,99.99
2019-06-07T06:48:54.966Z,99.99
2019-06-07T06:49:54.253Z,99.99
2019-06-07T06:50:52.584Z,99.99
2019-06-07T06:51:53.421Z,99.99
2019-06-07T06:52:54.395Z,99.99
2019-06-07T06:53:52.501Z,99.99
2019-06-07T06:54:59.367Z,99.99
2019-06-07T06:55:51.421Z,99.99
2019-06-07T06:56:52.612Z,99.99
2019-06-07T06:57:51.370Z,99.99
2019-06-07T06:59:32.688Z,99.99
2019-06-07T06:59:52.514Z,99.99
2019-06-07T07:01:04.926Z,99.99
2019-06-07T07:01:52.453Z,99.99
2019-06-07T07:03:40.738Z,99.99
2019-06-07T07:04:09.165Z,99.99
2019-06-07T07:04:53.490Z,99.99
2019-06-07T07:05:53.310Z,99.99
2019-06-07T07:06:50.632Z,99.99
2019-06-07T07:07:51.621Z,99.99
2019-06-07T07:08:51.404Z,99.99
2019-06-07T07:09:55.311Z,99.99
2019-06-07T07:10:52.649Z,99.99
2019-06-07T07:12:00.779Z,99.99
2019-06-07T07:12:51.213Z,99.99
2019-06-07T07:13:53.238Z,99.99
2019-06-07T07:14:50.284Z,99.99
2019-06-07T07:15:55.215Z,99.99
2019-06-07T07:16:53.546Z,99.99
2019-06-07T07:18:00.695Z,99.99
2019-06-07T07:18:51.706Z,99.99
2019-06-07T07:19:50.427Z,99.99
2019-06-07T07:20:53.385Z,99.99
2019-06-07T07:21:51.433Z,99.99
2019-06-07T07:22:51.490Z,99.99
2019-06-07T07:24:14.544Z,99.99
2019-06-07T07:24:51.836Z,99.99
2019-06-07T07:25:55.396Z,99.99
2019-06-07T07:26:50.434Z,99.99
2019-06-07T07:27:52.096Z,99.99
2019-06-07T07:28:54.030Z,99.99
2019-06-07T07:29:52.617Z,99.99
2019-06-07T07:30:49.982Z,99.99
2019-06-07T07:31:51.744Z,99.99
2019-06-07T07:32:48.959Z,99.99
2019-06-07T07:34:50.061Z,99.99
2019-06-07T07:36:11.070Z,99.99
2019-06-07T07:36:48.281Z,99.99
2019-06-07T07:37:53.567Z,99.99
2019-06-07T07:38:51.744Z,99.99
2019-06-07T07:39:50.478Z,99.99
2019-06-07T07:41:14.128Z,99.99
2019-06-07T07:42:12.333Z,99.99
2019-06-07T07:42:47.549Z,99.99
2019-06-07T07:43:52.894Z,99.99
2019-06-07T07:44:49.045Z,99.99
2019-06-07T07:45:51.075Z,99.99
2019-06-07T07:46:46.650Z,99.99
2019-06-07T07:48:01.994Z,99.99
2019-06-07T07:48:46.343Z,99.99
2019-06-07T07:49:48.374Z,99.99
2019-06-07T07:50:49.670Z,99.99
2019-06-07T07:51:46.426Z,99.99
2019-06-07T07:52:49.064Z,99.99
2019-06-07T07:53:56.117Z,99.99
2019-06-07T07:54:57.850Z,99.99
2019-06-07T07:56:51.693Z,99.99
2019-06-07T07:57:56.788Z,99.99
2019-06-07T07:58:54.595Z,99.99
2019-06-07T08:00:08.380Z,99.99
2019-06-07T08:00:54.887Z,99.99
2019-06-07T08:01:53.852Z,99.99
2019-06-07T08:02:52.974Z,99.99
2019-06-07T08:03:50.706Z,99.99
2019-06-07T08:05:51.310Z,99.99
2019-06-07T08:06:51.564Z,99.99
2019-06-07T08:07:53.455Z,99.99
2019-06-07T08:08:51.189Z,99.99
2019-06-07T08:09:51.428Z,99.99
2019-06-07T08:10:54.965Z,99.99
2019-06-07T08:11:51.536Z,99.99
2019-06-07T08:13:11.802Z,99.99
2019-06-07T08:13:50.522Z,99.99
2019-06-07T08:14:51.100Z,99.99
2019-06-07T08:15:54.487Z,99.99
2019-06-07T08:16:49.358Z,99.99
2019-06-07T08:17:51.442Z,99.99
2019-06-07T08:18:51.529Z,99.99
2019-06-07T08:19:49.952Z,99.99
2019-06-07T08:21:10.960Z,99.99
2019-06-07T08:21:49.002Z,99.99
2019-06-07T08:22:49.904Z,99.99
2019-06-07T08:23:51.621Z,99.99
2019-06-07T08:24:51.359Z,99.99
2019-06-07T08:25:49.159Z,99.99
2019-06-07T08:27:12.514Z,99.99
2019-06-07T08:27:49.399Z,99.99
2019-06-07T08:28:48.426Z,99.99
2019-06-07T08:30:03.620Z,99.99
2019-06-07T08:30:52.336Z,99.99
2019-06-07T08:31:48.310Z,99.99
2019-06-07T08:32:51.511Z,99.99
2019-06-07T08:33:47.803Z,99.99
2019-06-07T08:34:49.842Z,99.99
2019-06-07T08:36:48.035Z,99.99
2019-06-07T08:38:50.920Z,99.99
2019-06-07T08:39:46.936Z,99.99
2019-06-07T08:40:46.849Z,99.99
2019-06-07T08:42:00.120Z,99.99
2019-06-07T08:43:02.812Z,99.99
2019-06-07T08:43:46.620Z,99.99
2019-06-07T08:44:46.547Z,99.99
2019-06-07T08:45:46.469Z,99.99
2019-06-07T08:46:46.397Z,99.99
2019-06-07T08:47:46.317Z,99.99
2019-06-07T08:48:46.263Z,99.99
2019-06-07T08:49:46.168Z,99.99
2019-06-07T08:50:46.091Z,99.99
2019-06-07T08:51:46.015Z,99.99
2019-06-07T08:52:45.963Z,99.99
2019-06-07T08:54:02.687Z,99.99
2019-06-07T08:54:45.784Z,99.99
2019-06-07T08:55:45.709Z,99.99
2019-06-07T08:56:45.638Z,99.99
2019-06-07T08:57:45.574Z,99.99
2019-06-07T08:58:45.493Z,99.99
2019-06-07T08:59:45.432Z,99.99
2019-06-07T09:00:47.569Z,99.99
2019-06-07T09:01:45.259Z,99.99
2019-06-07T09:02:45.184Z,99.99
2019-06-07T09:03:45.107Z,99.99
2019-06-07T09:04:45.034Z,99.99
2019-06-07T09:05:44.960Z,99.99
2019-06-07T09:07:44.801Z,99.99
2019-06-07T09:08:44.727Z,99.99
2019-06-07T09:09:44.651Z,99.99
2019-06-07T09:10:44.577Z,99.99
2019-06-07T09:11:44.511Z,99.99
2019-06-07T09:12:44.432Z,99.99
2019-06-07T09:13:44.355Z,99.99
2019-06-07T09:14:59.874Z,99.99
2019-06-07T09:15:44.206Z,99.99
2019-06-07T09:16:44.127Z,99.99
2019-06-07T09:18:30.574Z,99.99
2019-06-07T09:18:45.133Z,99.99
2019-06-07T09:19:43.904Z,99.99
2019-06-07T09:20:43.827Z,99.99
2019-06-07T09:21:43.752Z,99.99
2019-06-07T09:22:43.676Z,99.99
2019-06-07T09:23:43.618Z,99.99
2019-06-07T09:24:43.528Z,99.99
2019-06-07T09:25:56.411Z,99.99
2019-06-07T09:26:43.403Z,99.99
2019-06-07T09:27:43.301Z,99.99
2019-06-07T09:28:43.252Z,99.99
2019-06-07T09:29:43.147Z,99.99
2019-06-07T09:30:43.075Z,99.99
2019-06-07T09:31:52.884Z,99.99
2019-06-07T09:32:42.924Z,99.99
2019-06-07T09:33:42.853Z,99.99
2019-06-07T09:34:42.776Z,99.99
2019-06-07T09:35:42.701Z,99.99
2019-06-07T09:36:42.627Z,99.99
2019-06-07T09:38:42.475Z,99.99
2019-06-07T09:39:42.403Z,99.99
2019-06-07T09:40:42.333Z,99.99
2019-06-07T09:41:49.232Z,99.99
2019-06-07T09:42:42.187Z,99.99
2019-06-07T09:44:42.027Z,99.99
2019-06-07T09:45:41.953Z,99.99
2019-06-07T09:46:41.875Z,99.99
2019-06-07T09:47:41.803Z,99.99
2019-06-07T09:49:10.555Z,99.99
2019-06-07T09:49:41.653Z,99.99
2019-06-07T09:50:41.670Z,99.99
2019-06-07T09:51:41.505Z,99.99
2019-06-07T09:52:57.817Z,99.99
2019-06-07T09:53:41.359Z,99.99
2019-06-07T09:55:41.204Z,99.99
2019-06-07T09:56:41.135Z,99.99
2019-06-07T09:57:41.055Z,99.99
2019-06-07T09:58:52.110Z,99.99
2019-06-07T09:59:40.907Z,99.99
2019-06-07T10:00:42.673Z,99.99
2019-06-07T10:01:40.761Z,99.99
2019-06-07T10:02:40.705Z,99.99
2019-06-07T10:03:40.620Z,99.99
2019-06-07T10:04:40.538Z,99.99
2019-06-07T10:05:40.465Z,99.99
2019-06-07T10:06:40.387Z,99.99
2019-06-07T10:07:59.315Z,99.99
2019-06-07T10:09:57.192Z,99.99
2019-06-07T10:10:09.827Z,99.99
2019-06-07T10:10:42.812Z,99.99
2019-06-07T10:11:40.015Z,99.99
2019-06-07T10:12:39.955Z,99.99
2019-06-07T10:13:39.866Z,99.99
2019-06-07T10:14:39.794Z,99.99
2019-06-07T10:15:39.719Z,99.99
2019-06-07T10:16:48.020Z,99.99
2019-06-07T10:17:39.578Z,99.99
2019-06-07T10:18:39.497Z,99.99
2019-06-07T10:19:39.424Z,99.99
2019-06-07T10:20:39.352Z,99.99
2019-06-07T10:21:39.278Z,99.99
2019-06-07T10:22:39.200Z,99.99
2019-06-07T10:23:39.126Z,99.99
2019-06-07T10:24:39.053Z,99.99
2019-06-07T10:25:38.978Z,99.99
2019-06-07T10:26:38.928Z,99.99
2019-06-07T10:27:38.830Z,99.99
2019-06-07T10:28:38.758Z,99.99
2019-06-07T10:29:38.685Z,99.99
2019-06-07T10:30:38.607Z,99.99
2019-06-07T10:31:38.586Z,99.99
2019-06-07T10:32:38.462Z,99.99
2019-06-07T10:33:38.389Z,99.99
2019-06-07T10:34:38.313Z,99.99
2019-06-07T10:35:38.242Z,99.99
2019-06-07T10:36:38.181Z,99.99
2019-06-07T10:37:38.093Z,99.99
2019-06-07T10:38:38.023Z,99.99
2019-06-07T10:39:48.168Z,99.99
2019-06-07T10:40:37.872Z,99.99
2019-06-07T10:41:37.801Z,99.99
2019-06-07T10:42:37.724Z,99.99
2019-06-07T10:43:37.676Z,99.69
2019-06-07T10:44:37.584Z,99.99
2019-06-07T10:45:37.503Z,99.99
2019-06-07T10:46:37.431Z,99.99
2019-06-07T10:47:37.361Z,99.99
2019-06-07T10:48:37.285Z,99.99
2019-06-07T10:49:37.216Z,99.99
2019-06-07T10:50:37.147Z,99.99
2019-06-07T10:51:37.066Z,99.99
2019-06-07T10:52:36.995Z,99.69
2019-06-07T10:53:36.919Z,99.99
2019-06-07T10:54:36.843Z,99.99
2019-06-07T10:55:36.781Z,99.99
2019-06-07T10:56:36.715Z,99.99
2019-06-07T10:57:36.626Z,99.99
2019-06-07T10:58:36.552Z,99.74
2019-06-07T10:59:36.480Z,99.99
2019-06-07T11:00:36.403Z,99.99
2019-06-07T11:01:36.333Z,99.99
2019-06-07T11:02:36.261Z,99.99
2019-06-07T11:03:36.188Z,99.99
2019-06-07T11:04:36.114Z,99.99
2019-06-07T11:05:36.042Z,99.99
2019-06-07T11:06:35.973Z,99.99
2019-06-07T11:07:35.897Z,99.99
2019-06-07T11:08:35.825Z,99.99
2019-06-07T11:09:35.747Z,99.50
2019-06-07T11:10:35.673Z,99.99
2019-06-07T11:11:35.606Z,99.98
2019-06-07T11:12:35.542Z,99.99
2019-06-07T11:13:35.462Z,99.40
2019-06-07T11:14:35.388Z,99.50
2019-06-07T11:15:35.317Z,98.83
2019-06-07T11:16:35.280Z,99.69
2019-06-07T11:17:35.173Z,99.40
2019-06-07T11:18:35.095Z,99.79
2019-06-07T11:19:35.027Z,99.11
2019-06-07T11:20:34.951Z,99.16
2019-06-07T11:21:34.889Z,99.60
2019-06-07T11:22:34.812Z,99.98
2019-06-07T11:23:34.737Z,99.26
2019-06-07T11:24:34.670Z,99.74
2019-06-07T11:25:34.596Z,99.84
2019-06-07T11:26:34.522Z,99.65
2019-06-07T11:27:34.447Z,99.65
2019-06-07T11:28:34.375Z,98.97
2019-06-07T11:29:34.303Z,97.42
2019-06-07T11:30:34.236Z,97.14
2019-06-07T11:31:34.160Z,97.72
2019-06-07T11:32:34.092Z,97.62
2019-06-07T11:33:34.016Z,98.05
2019-06-07T11:34:33.945Z,98.00
2019-06-07T11:35:33.871Z,97.47
2019-06-07T11:36:33.800Z,96.61
2019-06-07T11:37:33.729Z,96.80
2019-06-07T11:38:33.654Z,97.09
2019-06-07T11:39:33.582Z,97.47
2019-06-07T11:40:35.913Z,97.28
2019-06-07T11:41:33.442Z,97.67
2019-06-07T11:42:33.369Z,98.54
2019-06-07T11:43:33.331Z,96.61
2019-06-07T11:44:33.227Z,97.47
2019-06-07T11:45:33.157Z,95.93
2019-06-07T11:46:33.089Z,95.45
2019-06-07T11:47:33.050Z,96.12
2019-06-07T11:48:32.941Z,95.54
2019-06-07T11:49:32.874Z,95.10
2019-06-07T11:50:32.799Z,96.07
2019-06-07T11:51:32.730Z,95.88
2019-06-07T11:52:32.660Z,95.98
2019-06-07T11:53:32.584Z,95.98
2019-06-07T11:54:32.518Z,94.91
2019-06-07T11:55:32.444Z,96.17
2019-06-07T11:56:32.375Z,97.81
2019-06-07T11:57:32.326Z,95.49
2019-06-07T11:58:32.242Z,96.65
2019-06-07T11:59:32.158Z,96.75
2019-06-07T12:00:34.307Z,96.84
2019-06-07T12:01:32.015Z,96.75
2019-06-07T12:02:31.983Z,97.23
2019-06-07T12:03:31.887Z,96.75
2019-06-07T12:04:34.956Z,96.84
2019-06-07T12:05:31.730Z,95.15
2019-06-07T12:06:31.663Z,94.38
2019-06-07T12:07:31.593Z,94.67
2019-06-07T12:08:31.535Z,92.44
2019-06-07T12:09:31.452Z,91.96
2019-06-07T12:10:42.202Z,92.83
2019-06-07T12:11:31.314Z,91.67
2019-06-07T12:12:31.242Z,89.29
2019-06-07T12:13:31.173Z,89.88
2019-06-07T12:14:31.104Z,88.71
2019-06-07T12:15:31.043Z,89.49
2019-06-07T12:16:30.974Z,89.49
2019-06-07T12:17:30.899Z,87.46
2019-06-07T12:18:30.867Z,84.50
2019-06-07T12:19:30.794Z,80.34
2019-06-07T12:20:30.728Z,82.41
2019-06-07T12:21:30.639Z,79.41
2019-06-07T12:22:30.576Z,77.70
2019-06-07T12:23:30.511Z,75.03
2019-06-07T12:24:30.450Z,73.61
2019-06-07T12:25:30.400Z,71.86
2019-06-07T12:26:30.322Z,70.45
2019-06-07T12:27:30.261Z,68.15
2019-06-07T12:28:30.202Z,66.69
2019-06-07T12:29:30.145Z,66.44
2019-06-07T12:30:30.087Z,63.36
2019-06-07T12:31:30.021Z,60.54
2019-06-07T12:32:29.963Z,60.25
2019-06-07T12:33:29.902Z,59.76
2019-06-07T12:34:29.844Z,59.31
2019-06-07T12:35:29.785Z,59.50
2019-06-07T12:36:29.744Z,58.36
2019-06-07T12:37:43.108Z,56.32
2019-06-07T12:38:29.612Z,55.47
2019-06-07T12:39:29.556Z,55.66
2019-06-07T12:40:32.240Z,55.50
2019-06-07T12:41:29.444Z,55.40
2019-06-07T12:42:29.392Z,54.94
2019-06-07T12:43:29.333Z,53.48
2019-06-07T12:44:29.280Z,53.31
2019-06-07T12:45:45.455Z,53.14
2019-06-07T12:46:29.167Z,51.97
2019-06-07T12:47:29.189Z,52.09
2019-06-07T12:48:29.052Z,52.48
2019-06-07T12:49:29.000Z,52.19
2019-06-07T12:50:42.599Z,52.41
2019-06-07T12:51:28.884Z,51.14
2019-06-07T12:52:28.849Z,50.26
2019-06-07T12:53:28.776Z,50.39
2019-06-07T12:54:28.727Z,49.32
2019-06-07T12:55:28.668Z,50.49
2019-06-07T12:56:28.607Z,49.12
2019-06-07T12:57:28.563Z,48.63
2019-06-07T12:58:34.903Z,47.77
2019-06-07T12:59:28.449Z,46.99
2019-06-07T13:00:28.394Z,47.11
2019-06-07T13:01:28.340Z,47.31
2019-06-07T13:02:28.369Z,47.14
2019-06-07T13:03:28.232Z,46.77
2019-06-07T13:04:28.179Z,46.57
2019-06-07T13:05:28.127Z,46.37
2019-06-07T13:06:28.093Z,46.08
2019-06-07T13:07:28.019Z,45.50